createdAt,value
2018-08-24T00:01:32.326Z,15.60
2018-08-24T00:03:59.540Z,18.97
2018-08-24T00:06:26.741Z,26.30
2018-08-24T00:08:54.077Z,19.20
2018-08-24T00:11:21.250Z,18.00
2018-08-24T00:13:48.463Z,17.80
2018-08-24T00:16:19.968Z,17.20
2018-08-24T00:18:47.160Z,21.33
2018-08-24T00:21:14.337Z,16.20
2018-08-24T00:23:41.530Z,18.87
2018-08-24T00:26:08.686Z,22.63
2018-08-24T00:28:35.911Z,22.20
2018-08-24T00:31:03.094Z,25.33
2018-08-24T00:33:30.282Z,21.47
2018-08-24T00:35:57.451Z,19.27
2018-08-24T00:38:24.646Z,19.87
2018-08-24T00:40:56.123Z,20.00
2018-08-24T00:43:23.321Z,20.03
2018-08-24T00:45:50.482Z,21.83
2018-08-24T00:48:17.678Z,23.23
2018-08-24T00:50:44.843Z,25.77
2018-08-24T00:53:12.059Z,21.93
2018-08-24T00:55:39.235Z,21.13
2018-08-24T00:58:06.431Z,22.83
2018-08-24T01:00:39.219Z,17.57
2018-08-24T01:03:06.374Z,20.20
2018-08-24T01:05:33.571Z,20.33
2018-08-24T01:08:06.896Z,19.77
2018-08-24T01:10:34.199Z,23.80
2018-08-24T01:13:01.396Z,18.87
2018-08-24T01:15:33.043Z,16.60
2018-08-24T01:18:05.540Z,19.00
2018-08-24T01:20:32.699Z,19.40
2018-08-24T01:22:59.901Z,22.93
2018-08-24T01:25:27.048Z,18.50
2018-08-24T01:27:54.240Z,24.30
2018-08-24T01:30:21.427Z,20.53
2018-08-24T01:32:48.598Z,21.07
2018-08-24T01:35:15.790Z,16.13
2018-08-24T01:37:43.010Z,24.57
2018-08-24T01:40:10.209Z,23.23
2018-08-24T01:42:37.372Z,19.30
2018-08-24T01:45:04.687Z,20.87
2018-08-24T01:47:31.858Z,18.70
2018-08-24T01:49:59.019Z,22.43
2018-08-24T01:52:26.226Z,16.57
2018-08-24T01:54:53.423Z,16.50
2018-08-24T01:57:20.593Z,17.43
2018-08-24T01:59:47.770Z,18.63
2018-08-24T02:02:14.970Z,21.43
2018-08-24T02:04:42.167Z,17.67
2018-08-24T02:07:09.358Z,18.27
2018-08-24T02:09:36.540Z,21.50
2018-08-24T02:12:03.758Z,19.73
2018-08-24T02:14:36.631Z,19.70
2018-08-24T02:17:03.723Z,18.90
2018-08-24T02:19:36.468Z,23.40
2018-08-24T02:22:09.223Z,22.13
2018-08-24T02:24:36.399Z,18.30
2018-08-24T02:27:03.620Z,24.40
2018-08-24T02:29:30.798Z,24.23
2018-08-24T02:31:57.972Z,23.87
2018-08-24T02:34:25.217Z,24.93
2018-08-24T02:36:52.380Z,21.63
2018-08-24T02:39:19.940Z,21.33
2018-08-24T02:41:47.124Z,22.80
2018-08-24T02:44:14.451Z,26.37
2018-08-24T02:46:42.505Z,27.60
2018-08-24T02:49:09.878Z,23.43
2018-08-24T02:51:37.064Z,24.57
2018-08-24T02:54:04.428Z,25.10
2018-08-24T02:56:31.616Z,25.87
2018-08-24T02:58:58.844Z,25.37
2018-08-24T03:01:26.059Z,24.40
2018-08-24T03:03:53.260Z,23.23
2018-08-24T03:06:20.439Z,30.27
2018-08-24T03:08:47.635Z,29.67
2018-08-24T03:11:14.803Z,25.20
2018-08-24T03:13:42.023Z,19.87
2018-08-24T03:16:09.537Z,28.37
2018-08-24T03:18:36.849Z,22.67
2018-08-24T03:21:04.038Z,22.90
2018-08-24T03:23:31.211Z,28.50
2018-08-24T03:25:58.410Z,20.00
2018-08-24T03:28:25.591Z,20.80
2018-08-24T03:30:52.787Z,21.00
2018-08-24T03:33:19.972Z,18.80
2018-08-24T03:35:47.180Z,22.67
2018-08-24T03:38:14.375Z,25.60
2018-08-24T03:40:41.545Z,21.20
2018-08-24T03:43:08.735Z,20.00
2018-08-24T03:45:35.907Z,18.43
2018-08-24T03:48:03.095Z,16.83
2018-08-24T03:50:30.267Z,22.57
2018-08-24T03:52:57.523Z,17.70
2018-08-24T03:55:24.706Z,25.87
2018-08-24T03:57:51.863Z,23.23
2018-08-24T04:00:19.052Z,19.70
2018-08-24T04:02:46.836Z,16.73
2018-08-24T04:05:14.430Z,17.10
2018-08-24T04:07:42.700Z,22.03
2018-08-24T04:10:09.902Z,21.20
2018-08-24T04:12:37.132Z,17.10
2018-08-24T04:15:04.314Z,14.57
2018-08-24T04:17:37.018Z,14.70
2018-08-24T04:20:04.233Z,15.07
2018-08-24T04:22:31.437Z,12.00
2018-08-24T04:24:58.603Z,11.53
2018-08-24T04:27:25.808Z,11.40
2018-08-24T04:29:52.971Z,10.67
2018-08-24T04:32:20.160Z,13.30
2018-08-24T04:34:47.331Z,10.83
2018-08-24T04:37:14.542Z,12.33
2018-08-24T04:39:41.699Z,11.83
2018-08-24T04:42:08.952Z,11.73
2018-08-24T04:44:36.107Z,9.33
2018-08-24T04:47:03.312Z,9.30
2018-08-24T04:49:30.499Z,10.23
2018-08-24T04:51:57.678Z,12.30
2018-08-24T04:54:24.875Z,17.13
2018-08-24T04:56:52.047Z,13.57
2018-08-24T04:59:19.230Z,10.77
2018-08-24T05:01:46.395Z,7.93
2018-08-24T05:04:13.574Z,10.70
2018-08-24T05:06:40.773Z,11.70
2018-08-24T05:09:08.612Z,10.40
2018-08-24T05:11:36.259Z,8.10
2018-08-24T05:14:03.460Z,10.27
2018-08-24T05:16:30.635Z,10.73
2018-08-24T05:18:57.838Z,11.30
2018-08-24T05:21:25.030Z,10.40
2018-08-24T05:23:52.222Z,8.40
2018-08-24T05:26:19.427Z,11.40
2018-08-24T05:28:46.621Z,8.73
2018-08-24T05:31:13.811Z,12.27
2018-08-24T05:33:41.015Z,11.73
2018-08-24T05:36:08.195Z,12.53
2018-08-24T05:38:35.350Z,8.73
2018-08-24T05:41:02.534Z,7.37
2018-08-24T05:43:29.755Z,5.63
2018-08-24T05:45:56.910Z,6.33
2018-08-24T05:48:24.267Z,5.03
2018-08-24T05:50:51.439Z,4.20
2018-08-24T05:53:18.622Z,5.53
2018-08-24T05:55:45.808Z,3.57
2018-08-24T05:58:13.148Z,5.23
2018-08-24T06:00:41.888Z,5.70
2018-08-24T06:03:09.719Z,5.10
2018-08-24T06:05:41.257Z,2.67
2018-08-24T06:08:08.535Z,2.97
2018-08-24T06:10:35.719Z,2.53
2018-08-24T06:13:02.902Z,3.47
2018-08-24T06:15:30.071Z,2.13
2018-08-24T06:17:57.874Z,3.40
2018-08-24T06:20:25.067Z,2.37
2018-08-24T06:22:52.455Z,2.97
2018-08-24T06:25:19.623Z,3.20
2018-08-24T06:27:47.117Z,2.80
2018-08-24T06:30:14.291Z,2.50
2018-08-24T06:32:42.165Z,2.20
2018-08-24T06:35:10.390Z,2.30
2018-08-24T06:37:37.734Z,2.10
2018-08-24T06:40:05.059Z,1.87
2018-08-24T06:42:32.236Z,2.20
2018-08-24T06:44:59.437Z,1.90
2018-08-24T06:47:26.838Z,2.20
2018-08-24T06:49:53.883Z,5.23
2018-08-24T06:52:21.408Z,2.10
2018-08-24T06:54:48.722Z,4.93
2018-08-24T06:57:16.055Z,3.20
2018-08-24T06:59:43.340Z,2.33
2018-08-24T07:02:10.406Z,3.63
2018-08-24T07:04:37.559Z,3.27
2018-08-24T07:07:04.748Z,2.30
2018-08-24T07:09:31.918Z,2.90
2018-08-24T07:11:59.070Z,3.57
2018-08-24T07:14:26.280Z,2.50
2018-08-24T07:16:58.589Z,3.80
2018-08-24T07:19:25.953Z,3.23
2018-08-24T07:21:53.175Z,3.93
2018-08-24T07:24:20.330Z,5.10
2018-08-24T07:26:47.490Z,3.77
2018-08-24T07:29:14.680Z,3.20
2018-08-24T07:31:41.827Z,3.63
2018-08-24T07:34:08.999Z,4.50
2018-08-24T07:36:36.170Z,2.70
2018-08-24T07:39:04.488Z,3.07
2018-08-24T07:41:31.868Z,3.90
2018-08-24T07:43:59.255Z,4.27
2018-08-24T07:46:26.418Z,4.43
2018-08-24T07:48:53.735Z,2.90
2018-08-24T07:51:20.942Z,3.33
2018-08-24T07:53:48.119Z,3.03
2018-08-24T07:56:15.271Z,4.77
2018-08-24T07:58:42.471Z,7.67
2018-08-24T08:01:09.967Z,3.83
2018-08-24T08:03:37.411Z,5.03
2018-08-24T08:06:04.655Z,3.77
2018-08-24T08:08:31.808Z,3.60
2018-08-24T08:10:58.993Z,4.57
2018-08-24T08:13:26.137Z,5.50
2018-08-24T08:15:53.324Z,3.90
2018-08-24T08:18:20.540Z,8.80
2018-08-24T08:20:47.678Z,5.37
2018-08-24T08:23:14.853Z,4.17
2018-08-24T08:25:42.010Z,7.77
2018-08-24T08:28:09.158Z,4.23
2018-08-24T08:30:36.322Z,5.43
2018-08-24T08:33:03.520Z,4.20
2018-08-24T08:35:30.658Z,4.10
2018-08-24T08:37:57.837Z,5.93
2018-08-24T08:40:24.991Z,9.13
2018-08-24T08:42:52.170Z,4.83
2018-08-24T08:45:19.322Z,6.50
2018-08-24T08:47:46.500Z,6.47
2018-08-24T08:50:13.642Z,5.47
2018-08-24T08:52:40.851Z,7.13
2018-08-24T08:55:07.994Z,8.83
2018-08-24T08:57:35.158Z,5.70
2018-08-24T09:00:09.549Z,7.00
2018-08-24T09:02:37.061Z,5.80
2018-08-24T09:05:04.250Z,6.07
2018-08-24T09:07:31.403Z,7.87
2018-08-24T09:09:58.586Z,9.50
2018-08-24T09:12:25.727Z,5.57
2018-08-24T09:14:52.924Z,7.70
2018-08-24T09:17:25.650Z,5.10
2018-08-24T09:19:58.214Z,6.40
2018-08-24T09:22:30.915Z,5.90
2018-08-24T09:25:03.707Z,6.87
2018-08-24T09:27:35.359Z,6.00
2018-08-24T09:30:04.200Z,6.93
2018-08-24T09:32:31.527Z,8.23
2018-08-24T09:34:58.691Z,6.23
2018-08-24T09:37:31.437Z,6.57
2018-08-24T09:39:58.584Z,7.93
2018-08-24T09:42:25.769Z,6.67
2018-08-24T09:44:52.942Z,8.50
2018-08-24T09:47:25.543Z,6.37
2018-08-24T09:49:52.692Z,7.40
2018-08-24T09:52:25.486Z,7.17
2018-08-24T09:54:52.646Z,7.93
2018-08-24T09:57:20.000Z,7.93
2018-08-24T09:59:47.159Z,6.43
2018-08-24T10:02:19.906Z,8.47
2018-08-24T10:04:52.459Z,6.53
2018-08-24T10:08:29.191Z,8.80
2018-08-24T10:10:56.342Z,6.73
2018-08-24T10:13:23.621Z,8.63
2018-08-24T10:15:50.712Z,9.07
2018-08-24T10:18:17.873Z,7.60
2018-08-24T10:20:45.052Z,8.57
2018-08-24T10:23:12.281Z,8.80
2018-08-24T10:25:39.391Z,9.73
2018-08-24T10:28:06.670Z,8.47
2018-08-24T10:30:33.851Z,7.83
2018-08-24T10:33:00.994Z,10.03
2018-08-24T10:35:28.175Z,10.40
2018-08-24T10:37:55.351Z,8.80
2018-08-24T10:40:22.639Z,10.13
2018-08-24T10:42:49.993Z,9.23
2018-08-24T10:45:17.179Z,8.07
2018-08-24T10:47:44.328Z,9.37
2018-08-24T10:50:11.471Z,8.63
2018-08-24T10:52:38.638Z,7.70
2018-08-24T10:55:05.831Z,8.40
2018-08-24T10:57:33.023Z,7.70
2018-08-24T11:00:00.158Z,9.70
2018-08-24T11:02:27.330Z,9.87
2018-08-24T11:04:54.489Z,6.97
2018-08-24T11:07:21.781Z,7.90
2018-08-24T11:09:48.825Z,8.43
2018-08-24T11:12:16.013Z,7.57
2018-08-24T11:14:43.167Z,7.67
2018-08-24T11:17:10.319Z,7.43
2018-08-24T11:19:37.503Z,6.70
2018-08-24T11:22:04.670Z,8.53
2018-08-24T11:24:31.839Z,6.60
2018-08-24T11:26:59.046Z,7.17
2018-08-24T11:29:26.265Z,6.83
2018-08-24T11:31:53.314Z,6.90
2018-08-24T11:34:20.495Z,6.53
2018-08-24T11:36:47.643Z,5.23
2018-08-24T11:39:14.825Z,9.10
2018-08-24T11:41:41.971Z,7.77
2018-08-24T11:44:09.114Z,6.03
2018-08-24T11:46:36.284Z,7.63
2018-08-24T11:49:03.429Z,7.97
2018-08-24T11:51:30.605Z,10.30
2018-08-24T11:53:57.816Z,9.50
2018-08-24T11:56:24.934Z,7.07
2018-08-24T11:58:52.116Z,8.23
2018-08-24T12:01:19.302Z,6.70
2018-08-24T12:06:20.314Z,8.13
2018-08-24T12:08:47.466Z,5.23
2018-08-24T12:11:14.619Z,7.27
2018-08-24T12:13:41.861Z,5.80
2018-08-24T12:16:08.970Z,5.53
2018-08-24T12:18:36.131Z,4.67
2018-08-24T12:21:03.359Z,6.03
2018-08-24T12:23:30.484Z,5.43
2018-08-24T12:25:57.696Z,6.70
2018-08-24T12:28:24.838Z,6.33
2018-08-24T12:30:52.025Z,7.03
2018-08-24T12:33:19.191Z,6.50
2018-08-24T12:35:46.335Z,5.53
2018-08-24T12:38:13.630Z,6.60
2018-08-24T12:40:40.686Z,7.33
2018-08-24T12:43:07.887Z,5.40
2018-08-24T12:45:35.039Z,4.90
2018-08-24T12:48:02.203Z,8.90
2018-08-24T12:50:29.365Z,7.33
2018-08-24T12:52:56.566Z,5.70
2018-08-24T12:55:23.742Z,7.77
2018-08-24T12:57:50.892Z,5.10
2018-08-24T13:00:18.062Z,4.60
2018-08-24T13:02:45.235Z,4.80
2018-08-24T13:05:12.390Z,5.10
2018-08-24T13:07:39.566Z,6.50
2018-08-24T13:10:06.734Z,7.87
2018-08-24T13:12:33.907Z,5.23
2018-08-24T13:15:01.063Z,4.90
2018-08-24T13:17:28.235Z,7.23
2018-08-24T13:19:55.392Z,4.33
2018-08-24T13:22:22.706Z,6.07
2018-08-24T13:24:49.850Z,8.10
2018-08-24T13:27:17.037Z,5.13
2018-08-24T13:29:44.183Z,6.53
2018-08-24T13:32:11.411Z,5.57
2018-08-24T13:34:38.659Z,6.33
2018-08-24T13:37:06.014Z,6.17
2018-08-24T13:39:33.175Z,6.10
2018-08-24T13:42:01.859Z,5.10
2018-08-24T13:44:29.019Z,9.23
2018-08-24T13:46:56.186Z,7.20
2018-08-24T13:49:23.367Z,5.73
2018-08-24T13:51:50.519Z,5.40
2018-08-24T13:54:17.703Z,5.27
2018-08-24T13:56:45.234Z,4.67
2018-08-24T13:59:12.660Z,4.57
2018-08-24T14:01:39.867Z,5.97
2018-08-24T14:04:07.374Z,6.73
2018-08-24T14:06:34.519Z,4.97
2018-08-24T14:09:01.670Z,3.93
2018-08-24T14:11:28.853Z,6.73
2018-08-24T14:13:56.002Z,5.33
2018-08-24T14:16:23.167Z,5.23
2018-08-24T14:18:50.352Z,11.17
2018-08-24T14:21:17.501Z,5.63
2018-08-24T14:23:44.659Z,6.73
2018-08-24T14:26:11.833Z,4.93
2018-08-24T14:28:39.014Z,5.00
2018-08-24T14:31:06.198Z,6.90
2018-08-24T14:33:33.370Z,5.80
2018-08-24T14:36:00.549Z,4.60
2018-08-24T14:38:27.811Z,9.83
2018-08-24T14:40:54.986Z,8.60
2018-08-24T14:43:22.366Z,10.00
2018-08-24T14:45:49.565Z,5.07
2018-08-24T14:48:16.824Z,4.87
2018-08-24T14:50:43.909Z,5.13
2018-08-24T14:53:11.130Z,7.47
2018-08-24T14:55:38.297Z,6.73
2018-08-24T14:58:05.443Z,6.40
2018-08-24T15:00:32.619Z,4.70
2018-08-24T15:02:59.767Z,5.73
2018-08-24T15:05:26.935Z,7.13
2018-08-24T15:07:54.112Z,6.83
2018-08-24T15:10:21.255Z,5.47
2018-08-24T15:12:48.427Z,6.60
2018-08-24T15:15:15.612Z,5.13
2018-08-24T15:17:42.790Z,9.10
2018-08-24T15:20:09.956Z,5.80
2018-08-24T15:22:37.197Z,6.33
2018-08-24T15:25:04.558Z,8.90
2018-08-24T15:27:31.721Z,7.53
2018-08-24T15:29:58.959Z,6.10
2018-08-24T15:32:26.066Z,9.30
2018-08-24T15:34:53.286Z,4.07
2018-08-24T15:37:20.819Z,5.10
2018-08-24T15:39:47.966Z,7.70
2018-08-24T15:42:15.143Z,5.13
2018-08-24T15:44:42.462Z,8.33
2018-08-24T15:47:09.667Z,5.93
2018-08-24T15:49:36.817Z,7.20
2018-08-24T15:52:03.978Z,4.30
2018-08-24T15:54:31.216Z,6.50
2018-08-24T15:56:58.349Z,4.90
2018-08-24T15:59:25.699Z,5.60
2018-08-24T16:01:52.846Z,6.43
2018-08-24T16:04:20.517Z,6.10
2018-08-24T16:06:47.692Z,5.70
2018-08-24T16:09:14.997Z,6.37
2018-08-24T16:11:42.147Z,13.87
2018-08-24T16:14:09.411Z,7.57
2018-08-24T16:16:36.686Z,7.63
2018-08-24T16:19:03.811Z,7.97
2018-08-24T16:21:30.982Z,3.90
2018-08-24T16:23:58.157Z,4.80
2018-08-24T16:26:25.904Z,6.83
2018-08-24T16:28:53.550Z,10.07
2018-08-24T16:31:20.772Z,9.10
2018-08-24T16:33:47.925Z,6.10
2018-08-24T16:36:15.510Z,6.47
2018-08-24T16:38:42.676Z,4.97
2018-08-24T16:41:09.868Z,4.00
2018-08-24T16:43:37.108Z,4.60
2018-08-24T16:46:04.264Z,10.90
2018-08-24T16:48:31.448Z,7.83
2018-08-24T16:50:58.595Z,8.63
2018-08-24T16:53:25.739Z,5.10
2018-08-24T16:55:52.928Z,6.37
2018-08-24T16:58:20.131Z,7.07
2018-08-24T17:00:47.302Z,7.37
2018-08-24T17:03:14.463Z,7.07
2018-08-24T17:05:41.662Z,11.87
2018-08-24T17:08:08.806Z,8.73
2018-08-24T17:10:36.002Z,7.57
2018-08-24T17:13:03.183Z,6.77
2018-08-24T17:15:30.362Z,6.30
2018-08-24T17:17:57.531Z,5.07
2018-08-24T17:20:24.702Z,4.57
2018-08-24T17:22:51.884Z,5.53
2018-08-24T17:25:19.034Z,5.47
2018-08-24T17:27:46.232Z,6.60
2018-08-24T17:30:13.397Z,4.33
2018-08-24T17:32:40.551Z,3.40
2018-08-24T17:35:07.872Z,9.23
2018-08-24T17:37:35.302Z,10.67
2018-08-24T17:40:02.478Z,3.67
2018-08-24T17:42:29.667Z,4.30
2018-08-24T17:44:56.811Z,6.17
2018-08-24T17:47:23.960Z,5.87
2018-08-24T17:49:51.131Z,6.33
2018-08-24T17:52:18.286Z,7.03
2018-08-24T17:54:45.463Z,4.87
2018-08-24T17:57:12.635Z,5.20
2018-08-24T17:59:39.816Z,6.30
2018-08-24T18:02:06.987Z,6.40
2018-08-24T18:04:34.184Z,4.70
2018-08-24T18:07:01.362Z,9.13
2018-08-24T18:09:28.546Z,5.30
2018-08-24T18:11:55.759Z,6.00
2018-08-24T18:14:22.916Z,2.90
2018-08-24T18:16:50.109Z,7.77
2018-08-24T18:19:17.268Z,6.13
2018-08-24T18:21:44.414Z,10.00
2018-08-24T18:24:11.606Z,4.27
2018-08-24T18:26:38.771Z,3.60
2018-08-24T18:29:05.958Z,5.20
2018-08-24T18:31:33.115Z,5.47
2018-08-24T18:34:00.306Z,4.63
2018-08-24T18:36:27.497Z,6.10
2018-08-24T18:38:54.660Z,5.83
2018-08-24T18:41:21.830Z,3.53
2018-08-24T18:43:49.207Z,5.80
2018-08-24T18:46:16.435Z,6.83
2018-08-24T18:48:43.739Z,7.77
2018-08-24T18:51:10.819Z,5.50
2018-08-24T18:53:37.976Z,4.30
2018-08-24T18:56:05.140Z,4.57
2018-08-24T18:58:32.319Z,5.57
2018-08-24T19:00:59.466Z,3.37
2018-08-24T19:03:26.648Z,4.50
2018-08-24T19:05:53.807Z,5.40
2018-08-24T19:08:20.991Z,8.63
2018-08-24T19:10:53.818Z,5.60
2018-08-24T19:13:20.998Z,7.97
2018-08-24T19:15:48.331Z,8.30
2018-08-24T19:18:21.121Z,5.43
2018-08-24T19:20:53.671Z,7.30
2018-08-24T19:23:20.813Z,4.70
2018-08-24T19:25:47.982Z,8.17
2018-08-24T19:28:21.539Z,6.70
2018-08-24T19:30:48.738Z,4.87
2018-08-24T19:33:15.915Z,2.90
2018-08-24T19:35:43.103Z,6.30
2018-08-24T19:38:10.318Z,10.50
2018-08-24T19:40:42.909Z,6.00
2018-08-24T19:43:10.119Z,3.87
2018-08-24T19:45:39.282Z,6.17
2018-08-24T19:48:12.112Z,3.20
2018-08-24T19:50:42.236Z,5.20
2018-08-24T19:53:09.479Z,3.90
2018-08-24T19:55:40.778Z,4.50
2018-08-24T19:58:13.544Z,6.70
2018-08-24T20:00:41.747Z,6.70
2018-08-24T20:03:08.883Z,4.07
2018-08-24T20:05:36.148Z,4.83
2018-08-24T20:08:08.810Z,5.03
2018-08-24T20:10:36.045Z,2.77
2018-08-24T20:13:03.348Z,3.87
2018-08-24T20:15:36.099Z,5.13
2018-08-24T20:18:03.281Z,4.30
2018-08-24T20:20:31.320Z,6.00
2018-08-24T20:22:58.535Z,3.50
2018-08-24T20:25:25.727Z,3.60
2018-08-24T20:27:54.462Z,4.13
2018-08-24T20:30:21.904Z,7.63
2018-08-24T20:32:49.082Z,3.63
2018-08-24T20:35:17.193Z,9.03
2018-08-24T20:37:44.367Z,4.43
2018-08-24T20:40:11.620Z,5.20
2018-08-24T20:42:38.795Z,4.77
2018-08-24T20:45:06.040Z,5.70
2018-08-24T20:47:33.210Z,4.63
2018-08-24T20:50:00.385Z,5.27
2018-08-24T20:52:27.561Z,5.70
2018-08-24T20:54:54.732Z,5.23
2018-08-24T20:57:21.887Z,3.20
2018-08-24T20:59:49.301Z,3.73
2018-08-24T21:02:16.487Z,3.77
2018-08-24T21:04:43.687Z,4.40
2018-08-24T21:07:10.862Z,5.07
2018-08-24T21:09:38.071Z,2.53
2018-08-24T21:12:05.343Z,4.53
2018-08-24T21:14:32.618Z,7.63
2018-08-24T21:16:59.868Z,3.43
2018-08-24T21:19:27.086Z,7.20
2018-08-24T21:21:54.278Z,6.50
2018-08-24T21:24:21.478Z,6.10
2018-08-24T21:26:48.762Z,3.73
2018-08-24T21:29:16.225Z,5.07
2018-08-24T21:31:43.215Z,4.53
2018-08-24T21:34:10.392Z,3.10
2018-08-24T21:36:37.546Z,5.77
2018-08-24T21:39:07.075Z,2.87
2018-08-24T21:41:34.227Z,4.63
2018-08-24T21:44:01.396Z,5.07
2018-08-24T21:46:28.615Z,5.00
2018-08-24T21:48:55.813Z,5.50
2018-08-24T21:51:22.959Z,4.57
2018-08-24T21:53:50.124Z,8.33
2018-08-24T21:56:17.476Z,5.20
2018-08-24T21:58:44.684Z,4.97
2018-08-24T22:01:11.843Z,4.10
2018-08-24T22:03:39.015Z,4.93
2018-08-24T22:06:06.162Z,5.47
2018-08-24T22:08:33.328Z,11.43
2018-08-24T22:11:00.475Z,3.20
2018-08-24T22:13:27.655Z,3.23
2018-08-24T22:15:54.798Z,7.93
2018-08-24T22:18:21.983Z,4.53
2018-08-24T22:20:49.128Z,9.03
2018-08-24T22:23:16.296Z,5.13
2018-08-24T22:25:43.450Z,7.10
2018-08-24T22:28:10.594Z,5.10
2018-08-24T22:30:37.761Z,5.27
2018-08-24T22:33:04.908Z,6.30
2018-08-24T22:35:32.073Z,2.13
2018-08-24T22:37:59.227Z,4.67
2018-08-24T22:40:26.391Z,4.30
2018-08-24T22:42:53.539Z,4.47
2018-08-24T22:45:23.342Z,3.03
2018-08-24T22:47:50.756Z,5.47
2018-08-24T22:50:17.911Z,4.70
2018-08-24T22:52:45.063Z,5.20
2018-08-24T22:55:12.234Z,4.43
2018-08-24T22:57:39.389Z,4.20
2018-08-24T23:00:06.560Z,6.00
2018-08-24T23:02:33.735Z,2.47
2018-08-24T23:05:00.899Z,5.33
2018-08-24T23:07:28.053Z,4.73
2018-08-24T23:09:55.251Z,4.73
2018-08-24T23:12:22.394Z,3.03
2018-08-24T23:14:49.563Z,7.33
2018-08-24T23:17:16.990Z,3.60
2018-08-24T23:19:44.176Z,4.90
2018-08-24T23:22:11.412Z,5.33
2018-08-24T23:24:38.581Z,5.60
2018-08-24T23:27:05.727Z,3.30
2018-08-24T23:29:32.913Z,4.80
2018-08-24T23:32:00.078Z,3.67
2018-08-24T23:34:27.264Z,4.60
2018-08-24T23:36:54.411Z,8.23
2018-08-24T23:39:21.600Z,4.07
2018-08-24T23:41:48.743Z,2.10
2018-08-24T23:44:15.936Z,5.63
2018-08-24T23:46:43.091Z,3.83
2018-08-24T23:49:10.254Z,3.40
2018-08-24T23:51:37.402Z,3.80
2018-08-24T23:54:04.548Z,3.13
2018-08-24T23:56:31.715Z,4.10
2018-08-24T23:58:58.876Z,4.80
